createdAt,value
2019-05-03T00:00:42.905Z,74.74
2019-05-03T00:01:42.895Z,73.91
2019-05-03T00:02:42.883Z,73.91
2019-05-03T00:03:42.871Z,73.85
2019-05-03T00:04:42.864Z,73.85
2019-05-03T00:05:42.851Z,73.85
2019-05-03T00:06:42.842Z,73.64
2019-05-03T00:07:42.831Z,73.40
2019-05-03T00:08:42.820Z,73.54
2019-05-03T00:09:42.808Z,72.82
2019-05-03T00:10:42.798Z,73.95
2019-05-03T00:11:42.786Z,73.95
2019-05-03T00:12:42.776Z,73.95
2019-05-03T00:13:42.765Z,72.92
2019-05-03T00:14:42.757Z,73.74
2019-05-03T00:15:42.927Z,74.15
2019-05-03T00:16:42.738Z,73.02
2019-05-03T00:17:42.723Z,74.26
2019-05-03T00:18:42.711Z,74.05
2019-05-03T00:19:42.703Z,73.44
2019-05-03T00:20:42.689Z,73.23
2019-05-03T00:21:42.681Z,73.64
2019-05-03T00:22:42.668Z,72.00
2019-05-03T00:23:42.661Z,72.20
2019-05-03T00:24:42.813Z,71.79
2019-05-03T00:25:42.637Z,72.31
2019-05-03T00:26:42.625Z,71.69
2019-05-03T00:27:42.856Z,71.79
2019-05-03T00:28:42.779Z,71.38
2019-05-03T00:29:42.595Z,71.69
2019-05-03T00:30:42.586Z,71.48
2019-05-03T00:31:42.572Z,71.79
2019-05-03T00:32:42.828Z,71.48
2019-05-03T00:33:42.551Z,71.48
2019-05-03T00:34:42.539Z,72.31
2019-05-03T00:35:42.528Z,72.41
2019-05-03T00:36:42.520Z,72.10
2019-05-03T00:37:42.507Z,72.82
2019-05-03T00:38:42.498Z,72.31
2019-05-03T00:39:42.485Z,73.23
2019-05-03T00:40:42.474Z,72.24
2019-05-03T00:41:42.643Z,72.65
2019-05-03T00:42:42.463Z,72.65
2019-05-03T00:43:42.479Z,72.75
2019-05-03T00:44:42.432Z,72.75
2019-05-03T00:45:42.424Z,72.82
2019-05-03T00:46:42.409Z,72.61
2019-05-03T00:47:42.399Z,73.54
2019-05-03T00:48:43.062Z,72.96
2019-05-03T00:49:42.660Z,73.27
2019-05-03T00:50:42.606Z,72.65
2019-05-03T00:51:42.476Z,73.64
2019-05-03T00:52:42.428Z,73.78
2019-05-03T00:53:42.527Z,73.47
2019-05-03T00:54:42.438Z,74.60
2019-05-03T00:55:42.325Z,73.98
2019-05-03T00:56:44.397Z,74.50
2019-05-03T00:57:42.292Z,74.29
2019-05-03T00:58:42.283Z,74.80
2019-05-03T00:59:42.272Z,75.12
2019-05-03T01:00:42.259Z,75.12
2019-05-03T01:01:42.566Z,74.19
2019-05-03T01:02:42.442Z,73.88
2019-05-03T01:03:42.230Z,74.19
2019-05-03T01:04:42.675Z,74.50
2019-05-03T01:05:42.384Z,74.70
2019-05-03T01:06:42.372Z,74.19
2019-05-03T01:07:42.317Z,74.70
2019-05-03T01:08:42.174Z,73.88
2019-05-03T01:09:42.470Z,73.57
2019-05-03T01:10:42.232Z,72.24
2019-05-03T01:11:42.142Z,72.85
2019-05-03T01:12:42.131Z,72.96
2019-05-03T01:13:42.369Z,73.88
2019-05-03T01:14:42.227Z,72.85
2019-05-03T01:15:42.445Z,74.22
2019-05-03T01:16:42.774Z,73.71
2019-05-03T01:17:42.078Z,74.95
2019-05-03T01:18:42.067Z,73.91
2019-05-03T01:19:42.625Z,72.89
2019-05-03T01:20:42.656Z,72.85
2019-05-03T01:21:42.294Z,72.78
2019-05-03T01:22:42.544Z,72.17
2019-05-03T01:23:42.094Z,71.86
2019-05-03T01:24:42.806Z,71.75
2019-05-03T01:25:42.897Z,70.94
2019-05-03T01:26:42.121Z,70.94
2019-05-03T01:27:42.738Z,71.45
2019-05-03T01:28:42.625Z,72.85
2019-05-03T01:29:42.527Z,71.34
2019-05-03T01:30:42.498Z,71.55
2019-05-03T01:31:42.216Z,71.04
2019-05-03T01:32:41.918Z,71.24
2019-05-03T01:33:42.629Z,70.21
2019-05-03T01:34:41.895Z,70.32
2019-05-03T01:35:42.815Z,69.49
2019-05-03T01:36:42.701Z,70.62
2019-05-03T01:37:42.476Z,70.52
2019-05-03T01:38:42.372Z,70.21
2019-05-03T01:39:42.102Z,70.73
2019-05-03T01:40:42.015Z,71.24
2019-05-03T01:41:41.825Z,70.32
2019-05-03T01:42:42.594Z,70.21
2019-05-03T01:43:41.972Z,71.14
2019-05-03T01:44:42.723Z,69.53
2019-05-03T01:45:42.506Z,69.49
2019-05-03T01:46:42.204Z,68.60
2019-05-03T01:47:41.998Z,69.01
2019-05-03T01:48:41.745Z,70.04
2019-05-03T01:49:42.642Z,69.63
2019-05-03T01:50:42.539Z,69.63
2019-05-03T01:51:42.062Z,68.80
2019-05-03T01:52:42.042Z,69.53
2019-05-03T01:53:41.772Z,71.07
2019-05-03T01:54:42.706Z,69.12
2019-05-03T01:55:44.519Z,70.56
2019-05-03T01:56:50.001Z,68.84
2019-05-03T01:57:42.648Z,67.81
2019-05-03T01:58:41.795Z,67.26
2019-05-03T01:59:42.610Z,67.16
2019-05-03T02:00:42.312Z,66.88
2019-05-03T02:01:42.177Z,66.54
2019-05-03T02:02:41.982Z,67.26
2019-05-03T02:03:41.895Z,65.86
2019-05-03T02:04:41.798Z,66.24
2019-05-03T02:05:42.939Z,65.03
2019-05-03T02:06:42.457Z,65.41
2019-05-03T02:07:42.276Z,65.23
2019-05-03T02:08:41.866Z,64.72
2019-05-03T02:09:41.756Z,64.93
2019-05-03T02:10:43.476Z,63.59
2019-05-03T02:11:42.147Z,64.41
2019-05-03T02:12:41.800Z,63.79
2019-05-03T02:13:42.774Z,64.31
2019-05-03T02:14:42.221Z,65.03
2019-05-03T02:15:42.188Z,63.59
2019-05-03T02:16:42.005Z,64.11
2019-05-03T02:17:42.636Z,62.97
2019-05-03T02:18:42.390Z,62.46
2019-05-03T02:19:42.195Z,62.46
2019-05-03T02:20:41.862Z,63.49
2019-05-03T02:21:41.755Z,62.05
2019-05-03T02:22:42.761Z,61.94
2019-05-03T02:23:42.606Z,61.63
2019-05-03T02:24:42.250Z,61.02
2019-05-03T02:25:41.936Z,61.15
2019-05-03T02:26:42.488Z,60.50
2019-05-03T02:27:42.223Z,63.72
2019-05-03T02:28:42.145Z,62.46
2019-05-03T02:29:41.826Z,60.94
2019-05-03T02:30:44.192Z,60.94
2019-05-03T02:31:43.685Z,61.35
2019-05-03T02:32:44.000Z,61.56
2019-05-03T02:33:43.488Z,60.74
2019-05-03T02:34:44.086Z,62.07
2019-05-03T02:35:43.003Z,61.05
2019-05-03T02:36:42.727Z,60.84
2019-05-03T02:37:43.875Z,60.43
2019-05-03T02:38:43.002Z,60.94
2019-05-03T02:39:42.725Z,61.05
2019-05-03T02:40:42.986Z,61.56
2019-05-03T02:41:41.180Z,61.87
2019-05-03T02:42:41.167Z,62.07
2019-05-03T02:43:41.159Z,62.79
2019-05-03T02:44:41.156Z,62.31
2019-05-03T02:45:41.136Z,62.90
2019-05-03T02:46:41.129Z,63.31
2019-05-03T02:47:41.114Z,63.72
2019-05-03T02:48:41.104Z,63.42
2019-05-03T02:49:41.092Z,63.42
2019-05-03T02:50:41.084Z,63.42
2019-05-03T02:51:41.072Z,64.44
2019-05-03T02:52:41.068Z,64.17
2019-05-03T02:53:41.049Z,65.81
2019-05-03T02:54:41.041Z,64.99
2019-05-03T02:55:41.030Z,64.68
2019-05-03T02:56:41.038Z,64.58
2019-05-03T02:57:41.006Z,63.65
2019-05-03T02:58:40.997Z,64.58
2019-05-03T02:59:40.991Z,64.58
2019-05-03T03:00:40.976Z,64.89
2019-05-03T03:01:40.965Z,64.58
2019-05-03T03:02:40.953Z,65.50
2019-05-03T03:03:40.943Z,65.71
2019-05-03T03:04:40.932Z,65.71
2019-05-03T03:05:40.920Z,65.64
2019-05-03T03:06:40.911Z,65.74
2019-05-03T03:07:40.899Z,65.81
2019-05-03T03:08:40.890Z,66.22
2019-05-03T03:09:40.878Z,66.25
2019-05-03T03:10:40.869Z,66.25
2019-05-03T03:11:40.857Z,65.84
2019-05-03T03:12:40.845Z,66.46
2019-05-03T03:13:40.836Z,66.97
2019-05-03T03:14:40.829Z,67.08
2019-05-03T03:15:40.814Z,67.80
2019-05-03T03:16:40.807Z,67.39
2019-05-03T03:17:40.794Z,67.49
2019-05-03T03:18:40.790Z,67.60
2019-05-03T03:19:40.781Z,67.49
2019-05-03T03:20:40.774Z,67.80
2019-05-03T03:21:40.760Z,68.32
2019-05-03T03:22:40.741Z,68.01
2019-05-03T03:23:40.728Z,67.49
2019-05-03T03:24:40.720Z,68.52
2019-05-03T03:25:40.706Z,68.52
2019-05-03T03:26:43.188Z,68.52
2019-05-03T03:27:41.685Z,68.83
2019-05-03T03:28:40.676Z,69.35
2019-05-03T03:29:40.663Z,69.35
2019-05-03T03:30:40.654Z,69.86
2019-05-03T03:31:40.644Z,68.93
2019-05-03T03:32:40.635Z,68.32
2019-05-03T03:33:40.801Z,67.49
2019-05-03T03:34:47.573Z,67.39
2019-05-03T03:35:41.603Z,67.60
2019-05-03T03:36:58.016Z,68.11
2019-05-03T03:37:41.576Z,68.11
2019-05-03T03:38:40.566Z,67.39
2019-05-03T03:39:40.558Z,67.39
2019-05-03T03:40:40.575Z,66.67
2019-05-03T03:41:40.536Z,65.43
2019-05-03T03:42:40.525Z,65.64
2019-05-03T03:43:40.517Z,64.84
2019-05-03T03:44:40.515Z,63.40
2019-05-03T03:45:40.492Z,63.81
2019-05-03T03:46:40.483Z,64.74
2019-05-03T03:47:40.484Z,63.19
2019-05-03T03:48:40.462Z,64.02
2019-05-03T03:49:40.450Z,63.71
2019-05-03T03:50:40.440Z,64.02
2019-05-03T03:51:40.429Z,63.74
2019-05-03T03:52:40.427Z,63.81
2019-05-03T03:53:40.409Z,63.84
2019-05-03T03:54:40.400Z,63.64
2019-05-03T03:55:40.390Z,64.04
2019-05-03T03:56:54.485Z,64.53
2019-05-03T03:57:41.363Z,65.28
2019-05-03T03:58:40.354Z,65.59
2019-05-03T03:59:40.354Z,64.46
2019-05-03T04:00:40.333Z,65.70
2019-05-03T04:01:40.321Z,65.62
2019-05-03T04:02:40.331Z,65.21
2019-05-03T04:03:40.301Z,65.73
2019-05-03T04:04:40.291Z,66.04
2019-05-03T04:05:40.279Z,66.14
2019-05-03T04:06:40.283Z,66.24
2019-05-03T04:07:40.259Z,65.86
2019-05-03T04:08:40.251Z,66.38
2019-05-03T04:09:40.242Z,67.30
2019-05-03T04:10:40.227Z,66.27
2019-05-03T04:11:40.213Z,66.17
2019-05-03T04:12:40.207Z,66.07
2019-05-03T04:13:40.205Z,65.86
2019-05-03T04:14:40.183Z,65.97
2019-05-03T04:15:40.172Z,66.48
2019-05-03T04:16:40.161Z,67.41
2019-05-03T04:17:40.151Z,67.21
2019-05-03T04:18:40.141Z,67.30
2019-05-03T04:19:40.130Z,67.61
2019-05-03T04:20:40.117Z,67.21
2019-05-03T04:21:40.113Z,67.24
2019-05-03T04:22:40.096Z,67.61
2019-05-03T04:23:40.086Z,67.61
2019-05-03T04:24:40.081Z,67.82
2019-05-03T04:25:40.066Z,67.44
2019-05-03T04:26:40.055Z,67.51
2019-05-03T04:27:40.042Z,68.54
2019-05-03T04:28:40.038Z,67.61
2019-05-03T04:29:40.030Z,68.75
2019-05-03T04:30:40.036Z,67.41
2019-05-03T04:31:40.001Z,67.82
2019-05-03T04:32:39.990Z,68.13
2019-05-03T04:33:39.982Z,67.82
2019-05-03T04:34:39.968Z,67.93
2019-05-03T04:35:39.956Z,68.10
2019-05-03T04:36:39.960Z,67.51
2019-05-03T04:37:39.940Z,67.69
2019-05-03T04:38:39.929Z,69.13
2019-05-03T04:39:39.917Z,68.30
2019-05-03T04:40:39.902Z,67.17
2019-05-03T04:41:39.895Z,67.38
2019-05-03T04:42:39.887Z,68.10
2019-05-03T04:43:39.879Z,68.21
2019-05-03T04:44:39.865Z,67.27
2019-05-03T04:45:39.851Z,67.90
2019-05-03T04:46:39.856Z,67.27
2019-05-03T04:47:39.830Z,67.69
2019-05-03T04:48:39.824Z,67.79
2019-05-03T04:49:39.807Z,67.58
2019-05-03T04:50:39.805Z,67.55
2019-05-03T04:51:39.787Z,67.55
2019-05-03T04:52:39.775Z,68.07
2019-05-03T04:53:39.765Z,67.76
2019-05-03T04:54:39.756Z,67.45
2019-05-03T04:55:39.743Z,67.45
2019-05-03T04:56:39.741Z,68.38
2019-05-03T04:57:45.513Z,67.73
2019-05-03T04:58:40.714Z,69.59
2019-05-03T04:59:39.699Z,69.07
2019-05-03T05:00:39.694Z,67.32
2019-05-03T05:01:39.680Z,67.42
2019-05-03T05:02:39.671Z,67.11
2019-05-03T05:03:39.656Z,67.80
2019-05-03T05:04:39.656Z,67.60
2019-05-03T05:05:39.653Z,67.29
2019-05-03T05:06:39.626Z,67.08
2019-05-03T05:07:39.622Z,67.21
2019-05-03T05:08:39.608Z,66.87
2019-05-03T05:09:39.599Z,67.60
2019-05-03T05:10:39.586Z,67.52
2019-05-03T05:11:39.572Z,68.24
2019-05-03T05:12:39.561Z,68.86
2019-05-03T05:13:39.553Z,69.14
2019-05-03T05:14:39.540Z,69.07
2019-05-03T05:15:39.532Z,69.17
2019-05-03T05:16:39.907Z,67.83
2019-05-03T05:17:39.508Z,68.55
2019-05-03T05:18:39.509Z,69.07
2019-05-03T05:19:39.492Z,68.45
2019-05-03T05:20:39.475Z,68.79
2019-05-03T05:21:39.469Z,69.17
2019-05-03T05:22:39.475Z,69.51
2019-05-03T05:23:39.443Z,68.79
2019-05-03T05:24:39.436Z,69.00
2019-05-03T05:25:39.423Z,69.62
2019-05-03T05:26:39.411Z,69.51
2019-05-03T05:27:48.850Z,69.93
2019-05-03T05:28:40.388Z,71.37
2019-05-03T05:29:39.378Z,69.93
2019-05-03T05:30:39.370Z,70.47
2019-05-03T05:31:39.376Z,70.44
2019-05-03T05:32:39.348Z,69.72
2019-05-03T05:33:39.337Z,69.93
2019-05-03T05:34:39.327Z,69.35
2019-05-03T05:35:39.318Z,67.33
2019-05-03T05:36:39.314Z,66.27
2019-05-03T05:37:39.298Z,64.62
2019-05-03T05:38:39.283Z,65.55
2019-05-03T05:39:39.275Z,66.06
2019-05-03T05:40:39.262Z,65.65
2019-05-03T05:41:39.257Z,65.65
2019-05-03T05:42:39.241Z,65.65
2019-05-03T05:43:39.230Z,65.41
2019-05-03T05:44:39.219Z,64.28
2019-05-03T05:45:39.207Z,64.76
2019-05-03T05:46:39.196Z,63.47
2019-05-03T05:47:39.187Z,61.16
2019-05-03T05:48:39.178Z,59.56
2019-05-03T05:49:39.167Z,57.64
2019-05-03T05:50:39.158Z,56.07
2019-05-03T05:51:39.142Z,57.10
2019-05-03T05:52:39.132Z,58.67
2019-05-03T05:53:39.122Z,58.67
2019-05-03T05:54:39.111Z,59.41
2019-05-03T05:55:39.100Z,60.26
2019-05-03T05:56:39.089Z,61.49
2019-05-03T05:57:39.078Z,60.49
2019-05-03T05:58:39.068Z,60.80
2019-05-03T05:59:39.057Z,61.39
2019-05-03T06:00:39.050Z,60.51
2019-05-03T06:01:39.036Z,59.97
2019-05-03T06:02:39.024Z,57.46
2019-05-03T06:03:39.015Z,57.87
2019-05-03T06:04:39.004Z,56.54
2019-05-03T06:05:38.992Z,57.92
2019-05-03T06:06:38.982Z,56.56
2019-05-03T06:07:38.975Z,57.38
2019-05-03T06:08:38.960Z,58.61
2019-05-03T06:09:38.950Z,57.76
2019-05-03T06:10:38.939Z,56.74
2019-05-03T06:11:38.931Z,56.13
2019-05-03T06:12:38.923Z,56.41
2019-05-03T06:13:38.909Z,55.26
2019-05-03T06:14:38.895Z,55.43
2019-05-03T06:15:38.885Z,54.08
2019-05-03T06:16:38.876Z,54.39
2019-05-03T06:17:38.866Z,54.31
2019-05-03T06:18:38.860Z,54.28
2019-05-03T06:19:38.842Z,53.57
2019-05-03T06:20:38.834Z,54.44
2019-05-03T06:21:38.821Z,55.56
2019-05-03T06:22:38.811Z,54.44
2019-05-03T06:23:38.799Z,54.25
2019-05-03T06:24:38.797Z,54.61
2019-05-03T06:25:38.781Z,54.41
2019-05-03T06:26:38.766Z,54.23
2019-05-03T06:27:38.757Z,53.64
2019-05-03T06:28:38.751Z,54.51
2019-05-03T06:29:38.735Z,54.13
2019-05-03T06:30:38.724Z,56.00
2019-05-03T06:31:38.722Z,53.90
2019-05-03T06:32:38.703Z,54.77
2019-05-03T06:33:38.695Z,52.91
2019-05-03T06:34:38.682Z,53.59
2019-05-03T06:35:38.670Z,54.08
2019-05-03T06:36:38.665Z,51.57
2019-05-03T06:37:38.649Z,52.42
2019-05-03T06:38:38.637Z,54.05
2019-05-03T06:39:38.627Z,51.68
2019-05-03T06:40:38.618Z,51.70
2019-05-03T06:41:38.605Z,51.95
2019-05-03T06:42:50.969Z,54.18
2019-05-03T06:43:44.354Z,56.18
2019-05-03T06:44:39.574Z,56.35
2019-05-03T06:45:41.094Z,55.49
2019-05-03T06:46:39.549Z,55.79
2019-05-03T06:47:40.305Z,56.02
2019-05-03T06:48:39.528Z,54.13
2019-05-03T06:49:39.371Z,53.67
2019-05-03T06:50:39.506Z,54.64
2019-05-03T06:51:39.949Z,55.82
2019-05-03T06:52:39.486Z,56.26
2019-05-03T06:53:41.835Z,58.54
2019-05-03T06:54:39.468Z,58.03
2019-05-03T06:55:40.092Z,58.03
2019-05-03T06:56:41.408Z,58.49
2019-05-03T06:57:40.123Z,57.15
2019-05-03T06:58:39.422Z,56.95
2019-05-03T06:59:38.416Z,56.87
2019-05-03T07:00:38.403Z,56.49
2019-05-03T07:01:38.393Z,54.08
2019-05-03T07:02:38.383Z,54.90
2019-05-03T07:03:38.378Z,55.02
2019-05-03T07:04:38.358Z,55.54
2019-05-03T07:05:38.346Z,54.90
2019-05-03T07:06:40.703Z,54.44
2019-05-03T07:07:38.329Z,53.90
2019-05-03T07:08:38.314Z,54.64
2019-05-03T07:09:38.304Z,54.25
2019-05-03T07:10:38.364Z,53.62
2019-05-03T07:11:38.282Z,54.59
2019-05-03T07:12:38.269Z,54.61
2019-05-03T07:13:38.262Z,54.46
2019-05-03T07:14:38.247Z,55.82
2019-05-03T07:15:38.239Z,55.69
2019-05-03T07:16:38.225Z,53.69
2019-05-03T07:17:38.216Z,52.90
2019-05-03T07:18:38.204Z,52.78
2019-05-03T07:19:38.193Z,50.45
2019-05-03T07:20:38.184Z,51.16
2019-05-03T07:21:38.174Z,51.81
2019-05-03T07:22:38.165Z,51.15
2019-05-03T07:23:38.149Z,49.16
2019-05-03T07:24:40.795Z,47.61
2019-05-03T07:25:38.133Z,47.61
2019-05-03T07:26:38.119Z,49.57
2019-05-03T07:27:38.108Z,48.16
2019-05-03T07:28:47.161Z,51.50
2019-05-03T07:29:39.088Z,52.65
2019-05-03T07:30:38.079Z,50.73
2019-05-03T07:31:38.071Z,51.62
2019-05-03T07:32:38.055Z,53.36
2019-05-03T07:33:38.047Z,53.13
2019-05-03T07:34:38.035Z,51.14
2019-05-03T07:35:38.025Z,51.65
2019-05-03T07:36:38.028Z,52.70
2019-05-03T07:37:38.004Z,52.39
2019-05-03T07:38:37.993Z,53.92
2019-05-03T07:39:37.983Z,53.64
2019-05-03T07:40:37.971Z,51.73
2019-05-03T07:41:37.960Z,51.50
2019-05-03T07:42:37.952Z,52.65
2019-05-03T07:43:37.935Z,53.59
2019-05-03T07:44:37.934Z,53.00
2019-05-03T07:45:37.920Z,53.82
2019-05-03T07:46:37.905Z,53.62
2019-05-03T07:47:37.896Z,52.51
2019-05-03T07:48:37.881Z,52.75
2019-05-03T07:49:37.878Z,53.08
2019-05-03T07:50:37.859Z,52.00
2019-05-03T07:51:37.850Z,50.98
2019-05-03T07:52:37.841Z,53.23
2019-05-03T07:53:37.827Z,51.42
2019-05-03T07:54:37.816Z,51.31
2019-05-03T07:55:37.806Z,50.80
2019-05-03T07:56:37.795Z,51.21
2019-05-03T07:57:37.783Z,48.97
2019-05-03T07:58:37.775Z,47.20
2019-05-03T07:59:37.763Z,46.45
2019-05-03T08:00:37.753Z,46.41
2019-05-03T08:01:37.741Z,46.87
2019-05-03T08:02:37.731Z,44.38
2019-05-03T08:03:37.720Z,44.71
2019-05-03T08:04:37.710Z,43.47
2019-05-03T08:05:37.701Z,44.18
2019-05-03T08:06:37.692Z,43.61
2019-05-03T08:07:37.678Z,45.72
2019-05-03T08:08:37.667Z,45.65
2019-05-03T08:09:37.660Z,47.74
2019-05-03T08:10:37.753Z,46.49
2019-05-03T08:11:37.717Z,46.41
2019-05-03T08:12:37.628Z,46.70
2019-05-03T08:13:37.615Z,47.78
2019-05-03T08:14:37.606Z,45.40
2019-05-03T08:15:37.595Z,45.79
2019-05-03T08:16:37.585Z,45.65
2019-05-03T08:17:37.573Z,43.18
2019-05-03T08:18:37.566Z,42.53
2019-05-03T08:19:37.553Z,45.20
2019-05-03T08:20:37.540Z,43.91
2019-05-03T08:21:38.869Z,42.63
2019-05-03T08:22:37.519Z,43.75
2019-05-03T08:23:37.505Z,40.84
2019-05-03T08:24:37.498Z,40.50
2019-05-03T08:25:37.486Z,41.49
2019-05-03T08:26:37.473Z,41.66
2019-05-03T08:27:37.465Z,39.32
2019-05-03T08:28:37.452Z,39.20
2019-05-03T08:29:37.442Z,38.78
2019-05-03T08:30:37.433Z,40.22
2019-05-03T08:31:37.420Z,38.68
2019-05-03T08:32:37.415Z,40.12
2019-05-03T08:33:37.403Z,39.39
2019-05-03T08:34:37.392Z,43.47
2019-05-03T08:35:37.381Z,39.15
2019-05-03T08:36:37.371Z,38.54
2019-05-03T08:37:37.357Z,41.68
2019-05-03T08:38:37.349Z,38.15
2019-05-03T08:39:37.340Z,38.47
2019-05-03T08:40:37.328Z,39.20
2019-05-03T08:41:37.320Z,41.00
2019-05-03T08:42:37.308Z,43.61
2019-05-03T08:43:37.301Z,45.57
2019-05-03T08:44:37.374Z,43.75
2019-05-03T08:45:37.278Z,40.77
2019-05-03T08:46:37.267Z,40.32
2019-05-03T08:47:37.254Z,41.31
2019-05-03T08:48:37.245Z,45.50
2019-05-03T08:49:37.235Z,43.91
2019-05-03T08:50:37.220Z,44.78
2019-05-03T08:51:37.212Z,42.53
2019-05-03T08:52:37.203Z,40.33
2019-05-03T08:53:37.189Z,41.00
2019-05-03T08:54:37.179Z,39.06
2019-05-03T08:55:37.169Z,38.73
2019-05-03T08:56:37.157Z,37.39
2019-05-03T08:57:37.148Z,37.66
2019-05-03T08:58:37.136Z,39.97
2019-05-03T08:59:37.141Z,39.26
2019-05-03T09:00:37.116Z,39.28
2019-05-03T09:01:39.390Z,38.07
2019-05-03T09:02:37.095Z,37.93
2019-05-03T09:03:38.476Z,40.31
2019-05-03T09:04:38.551Z,42.88
2019-05-03T09:05:37.065Z,43.61
2019-05-03T09:06:37.063Z,43.84
2019-05-03T09:07:37.043Z,43.23
2019-05-03T09:08:37.030Z,45.57
2019-05-03T09:09:37.022Z,43.20
2019-05-03T09:10:37.011Z,42.22
2019-05-03T09:11:37.035Z,41.85
2019-05-03T09:12:36.988Z,42.30
2019-05-03T09:13:36.979Z,40.55
2019-05-03T09:14:42.615Z,40.45
2019-05-03T09:15:37.956Z,41.61
2019-05-03T09:16:36.947Z,40.64
2019-05-03T09:17:36.935Z,38.71
2019-05-03T09:18:36.934Z,37.85
2019-05-03T09:19:36.915Z,38.18
2019-05-03T09:20:36.906Z,40.50
2019-05-03T09:21:36.891Z,40.88
2019-05-03T09:22:36.892Z,39.89
2019-05-03T09:23:36.876Z,37.81
2019-05-03T09:24:36.864Z,38.98
2019-05-03T09:25:36.856Z,38.04
2019-05-03T09:26:36.839Z,40.25
2019-05-03T09:27:36.829Z,40.69
2019-05-03T09:28:36.820Z,41.35
2019-05-03T09:29:43.160Z,42.45
2019-05-03T09:30:37.901Z,42.49
2019-05-03T09:31:36.788Z,40.26
2019-05-03T09:32:36.777Z,43.02
2019-05-03T09:33:36.765Z,44.46
2019-05-03T09:34:36.756Z,43.32
2019-05-03T09:35:36.743Z,41.19
2019-05-03T09:36:36.733Z,41.10
2019-05-03T09:37:36.722Z,42.53
2019-05-03T09:38:36.710Z,44.06
2019-05-03T09:39:36.699Z,43.12
2019-05-03T09:40:36.688Z,40.80
2019-05-03T09:41:36.677Z,44.16
2019-05-03T09:42:36.666Z,41.39
2019-05-03T09:43:36.654Z,43.44
2019-05-03T09:44:36.644Z,44.69
2019-05-03T09:45:36.633Z,43.57
2019-05-03T09:46:36.648Z,43.57
2019-05-03T09:47:36.617Z,44.78
2019-05-03T09:48:36.615Z,44.67
2019-05-03T09:49:36.595Z,42.53
2019-05-03T09:50:36.582Z,42.55
2019-05-03T09:51:36.571Z,44.38
2019-05-03T09:52:36.562Z,43.41
2019-05-03T09:53:36.553Z,45.96
2019-05-03T09:54:36.538Z,42.73
2019-05-03T09:55:36.529Z,40.70
2019-05-03T09:56:36.516Z,38.31
2019-05-03T09:57:36.507Z,40.36
2019-05-03T09:58:38.241Z,37.96
2019-05-03T09:59:36.487Z,37.74
2019-05-03T10:00:36.475Z,37.89
2019-05-03T10:01:36.464Z,36.32
2019-05-03T10:02:36.455Z,34.80
2019-05-03T10:03:36.609Z,34.99
2019-05-03T10:04:36.824Z,36.27
2019-05-03T10:05:36.424Z,36.34
2019-05-03T10:06:36.412Z,33.59
2019-05-03T10:07:36.404Z,31.10
2019-05-03T10:08:36.393Z,32.44
2019-05-03T10:09:36.384Z,33.52
2019-05-03T10:10:36.372Z,33.10
2019-05-03T10:11:36.372Z,31.67
2019-05-03T10:12:36.352Z,32.65
2019-05-03T10:13:36.342Z,31.91
2019-05-03T10:14:36.328Z,31.52
2019-05-03T10:15:36.318Z,32.42
2019-05-03T10:16:36.310Z,35.14
2019-05-03T10:17:36.300Z,38.02
2019-05-03T10:18:36.303Z,39.14
2019-05-03T10:19:40.126Z,39.36
2019-05-03T10:20:36.267Z,41.00
2019-05-03T10:21:36.257Z,40.62
2019-05-03T10:22:36.255Z,40.25
2019-05-03T10:23:36.237Z,41.49
2019-05-03T10:24:36.270Z,42.73
2019-05-03T10:25:36.257Z,42.63
2019-05-03T10:26:36.281Z,40.39
2019-05-03T10:27:36.191Z,40.26
2019-05-03T10:28:36.185Z,40.09
2019-05-03T10:29:36.173Z,37.63
2019-05-03T10:30:36.160Z,37.10
2019-05-03T10:31:36.147Z,35.33
2019-05-03T10:32:36.139Z,37.13
2019-05-03T10:33:36.127Z,35.78
2019-05-03T10:34:36.145Z,33.13
2019-05-03T10:35:36.107Z,33.77
2019-05-03T10:36:36.096Z,34.28
2019-05-03T10:37:36.087Z,35.42
2019-05-03T10:38:36.074Z,36.25
2019-05-03T10:39:36.308Z,35.34
2019-05-03T10:40:36.055Z,36.25
2019-05-03T10:41:36.050Z,37.10
2019-05-03T10:42:36.037Z,37.43
2019-05-03T10:43:36.022Z,37.84
2019-05-03T10:44:36.010Z,38.58
2019-05-03T10:45:36.002Z,40.45
2019-05-03T10:46:35.989Z,40.35
2019-05-03T10:47:35.981Z,41.55
2019-05-03T10:48:35.969Z,38.67
2019-05-03T10:49:35.960Z,37.43
2019-05-03T10:50:35.947Z,37.27
2019-05-03T10:51:36.018Z,37.02
2019-05-03T10:52:35.928Z,35.44
2019-05-03T10:53:35.917Z,36.72
2019-05-03T10:54:36.059Z,34.89
2019-05-03T10:55:35.937Z,32.04
2019-05-03T10:56:35.970Z,30.73
2019-05-03T10:57:35.874Z,32.07
2019-05-03T10:58:35.864Z,31.07
2019-05-03T10:59:35.854Z,32.93
2019-05-03T11:00:44.578Z,32.68
2019-05-03T11:01:36.829Z,36.07
2019-05-03T11:02:36.215Z,34.97
2019-05-03T11:03:35.811Z,36.82
2019-05-03T11:04:35.801Z,36.85
2019-05-03T11:05:35.786Z,38.92
2019-05-03T11:06:35.797Z,39.13
2019-05-03T11:07:35.781Z,40.47
2019-05-03T11:08:35.756Z,40.98
2019-05-03T11:09:49.830Z,41.51
2019-05-03T11:10:36.732Z,41.39
2019-05-03T11:11:35.742Z,41.69
2019-05-03T11:12:35.711Z,41.41
2019-05-03T11:13:35.709Z,42.94
2019-05-03T11:14:35.691Z,41.00
2019-05-03T11:15:35.681Z,42.12
2019-05-03T11:16:35.668Z,41.41
2019-05-03T11:17:35.664Z,42.55
2019-05-03T11:18:35.646Z,44.87
2019-05-03T11:19:35.642Z,42.63
2019-05-03T11:20:35.632Z,40.71
2019-05-03T11:21:35.615Z,38.87
2019-05-03T11:22:35.603Z,42.73
2019-05-03T11:23:35.596Z,41.73
2019-05-03T11:24:35.584Z,41.00
2019-05-03T11:25:35.572Z,41.14
2019-05-03T11:26:35.564Z,40.71
2019-05-03T11:27:35.559Z,41.53
2019-05-03T11:28:35.540Z,41.00
2019-05-03T11:29:35.707Z,40.61
2019-05-03T11:30:35.713Z,43.08
2019-05-03T11:31:35.511Z,42.38
2019-05-03T11:32:35.500Z,43.91
2019-05-03T11:33:35.493Z,43.32
2019-05-03T11:34:35.587Z,43.30
2019-05-03T11:35:35.463Z,41.49
2019-05-03T11:36:35.454Z,41.88
2019-05-03T11:37:35.444Z,41.88
2019-05-03T11:38:35.433Z,45.04
2019-05-03T11:39:35.421Z,43.77
2019-05-03T11:40:35.419Z,41.39
2019-05-03T11:41:35.830Z,38.89
2019-05-03T11:42:35.485Z,38.34
2019-05-03T11:43:35.382Z,38.73
2019-05-03T11:44:36.348Z,37.35
2019-05-03T11:45:35.555Z,39.94
2019-05-03T11:46:35.503Z,37.42
2019-05-03T11:47:35.335Z,36.98
2019-05-03T11:48:35.324Z,39.80
2019-05-03T11:49:35.315Z,33.52
2019-05-03T11:50:35.316Z,34.53
2019-05-03T11:51:35.423Z,36.24
2019-05-03T11:52:35.667Z,35.39
2019-05-03T11:53:35.652Z,32.39
2019-05-03T11:54:35.883Z,34.99
2019-05-03T11:55:35.423Z,35.21
2019-05-03T11:56:35.944Z,35.99
2019-05-03T11:57:35.738Z,36.73
2019-05-03T11:58:35.241Z,37.68
2019-05-03T11:59:35.206Z,38.42
2019-05-03T12:00:35.195Z,39.96
2019-05-03T12:01:35.798Z,39.86
2019-05-03T12:02:35.172Z,40.59
2019-05-03T12:03:35.560Z,40.98
2019-05-03T12:04:35.459Z,40.45
2019-05-03T12:05:35.143Z,40.43
2019-05-03T12:06:36.824Z,38.15
2019-05-03T12:07:39.487Z,38.95
2019-05-03T12:08:35.109Z,37.90
2019-05-03T12:09:35.098Z,37.07
2019-05-03T12:10:50.775Z,36.24
2019-05-03T12:11:36.077Z,37.34
2019-05-03T12:12:35.366Z,35.19
2019-05-03T12:13:35.055Z,35.83
2019-05-03T12:14:35.045Z,37.15
2019-05-03T12:15:35.308Z,36.65
2019-05-03T12:17:11.985Z,37.26
2019-05-03T12:17:36.350Z,35.72
2019-05-03T12:18:48.983Z,35.21
2019-05-03T12:19:37.629Z,35.99
2019-05-03T12:20:36.968Z,35.99
2019-05-03T12:21:37.607Z,35.38
2019-05-03T12:22:35.927Z,36.00
2019-05-03T12:23:36.694Z,36.82
2019-05-03T12:24:36.441Z,37.71
2019-05-03T12:25:36.145Z,37.13
2019-05-03T12:26:43.385Z,37.05
2019-05-03T12:27:35.902Z,35.05
2019-05-03T12:28:35.368Z,35.07
2019-05-03T12:29:35.307Z,35.51
2019-05-03T12:30:35.500Z,38.36
2019-05-03T12:31:40.281Z,36.73
2019-05-03T12:32:35.848Z,36.43
2019-05-03T12:33:35.485Z,36.38
2019-05-03T12:34:35.349Z,35.22
2019-05-03T12:35:35.780Z,33.07
2019-05-03T12:36:38.951Z,33.47
2019-05-03T12:37:35.382Z,32.17
2019-05-03T12:38:35.091Z,35.92
2019-05-03T12:39:35.830Z,36.36
2019-05-03T12:40:34.974Z,34.97
2019-05-03T12:41:34.753Z,36.71
2019-05-03T12:42:35.511Z,39.28
2019-05-03T12:43:34.729Z,39.36
2019-05-03T12:44:35.416Z,37.53
2019-05-03T12:45:35.440Z,38.14
2019-05-03T12:46:35.399Z,38.34
2019-05-03T12:47:34.847Z,36.83
2019-05-03T12:48:35.521Z,36.75
2019-05-03T12:49:35.827Z,38.17
2019-05-03T12:50:34.955Z,36.55
2019-05-03T12:51:34.645Z,37.05
2019-05-03T12:52:36.669Z,37.99